Archival Weather

Republic

Farmingdale, New York (KFRG)

Report from: Sunday, January 28, 2024 9:53 AM EST
Current time: Monday, June 17, 2024 3:57 AM EDT

Current weather – Weather history – Daily summaries
Weather forecast

Present weatherMist
Temperature3.9°C (39.0°F)
Wind chill-0.6°C (31.0°F)
Dew point2.8°C (37.0°F)
Winds 12 kts (6.2 m/s, 13.8 mph) East (80°)
Wind gusts 16 kts (8.2 m/s, 18.4 mph)
Visibility2 mi. (3.2 km)
Clouds Ceiling: Broken clouds 1,000 ft. (305 m)
Broken clouds 2,500 ft. (762 m)
Overcast 5,500 ft. (1,676 m)
Altimeter29.88 in.Hg (1012 mB)
Precipitiation0.07 in. (2 mm)
Precip last 3 hours0.20 in. (5 mm)
Relative humidity93 %
Density altitude-1,185 ft. (-361 m)
Sea-level pressure101.2 kPa (1012 mB, 29.88 in.Hg)
Remarks Automated weather observing station without precipitation discriminator
Pressure falling rapidly
Surface visibility
Pressure falling more quickly
Flight conditions Instrument Meteorological Conditions
Raw dataKFRG 281453Z 08012G16KT 2SM BR BKN010 BKN025 OVC055 04/03 A2988 RMK AO1 SFC VIS 6 PRESFR SLP118 P0007 60020 T00390028 58030
An error has occurred. This application may no longer respond until reloaded. Reload 🗙